x

Ne St Martin - 330 Nm Ne St Martin Is (41044) Wave Buoy

5:50am - Fri 29th May 2015 All times are UTC.

  • Sig Wave height 4.9ft
  • Swell Direction
  • Peak Period 8s
  • Average Period 7s
  • Wind
    9mph, 11mph gusts
  • Sea Temp 81°f
  • Air Temp 79°f
  • Sea Pressure 1017.1mb

More Historic Weather Station data

Upgrade to MSW Pro to gain access to the past 30 days of data for over 8000 Wavebouys and Weather Stations around the globe.

Join Pro

Comparision Forecast

View Surf forecast
   
Fri 05/29 5:50am 5ft 8s 7s 9 11 mph 1017.1mb 81f 79f
4:50am 5ft 8s 7s 9 11 mph 1017.6mb 81f 80f
3:50am 5ft 9s 7s 9 11 mph 1018.3mb 81f 80f
2:50am 5ft 9s 7s 9 11 mph 1018.6mb 81f 80f
1:50am 5ft 8s 7s 9
mph
1018.9mb 81f 80f
12:50am 5ft 8s 7s 9 11 mph 1018.5mb 82f 80f
Thu 05/28 11:50pm 4.5ft 8s 7s 9
mph
1018mb 82f 80f
10:50pm 5ft 8s 7s 7 11 mph 1017.5mb 82f 80f
9:50pm 5ft 9s 7s 4 7 mph 1016.8mb 82f 80f
8:50pm 5ft 8s 7s 7
mph
1016.3mb 82f 80f
7:50pm 4.5ft 8s 7s 4 7 mph 1016.3mb 82f 80f
6:50pm 5ft 8s 7s 7 9 mph 1016.6mb 82f 80f
5:50pm 5ft 8s 7s 7 9 mph 1016.9mb 82f 80f
4:50pm 5ft 8s 6s 9 11 mph 1017.3mb 82f 80f
3:50pm 4.5ft 8s 6s 9 13 mph 1017.5mb 81f 80f
2:50pm 5ft 8s 6s 11 13 mph 1017.5mb 81f 80f
1:50pm 4.5ft 8s 6s 11 13 mph 1017.4mb 81f 80f
12:50pm 5ft 8s 6s 13 16 mph 1016.9mb 81f 80f
11:50am 4.5ft 8s 6s 11 13 mph 1016.6mb 80f 80f
10:50am 5ft 9s 7s 11 13 mph 1016.1mb 80f 80f
9:50am 5ft 8s 7s 11 13 mph 1015.5mb 80f 79f
8:50am 5.5ft 8s 7s 11 13 mph 1014.9mb 80f 78f
7:50am 5ft 8s 7s 9 13 mph 1014.5mb 80f 78f
6:50am 6ft 9s 7s 9 11 mph 1014.3mb 80f 78f
5:50am 5.5ft 9s 7s 9 11 mph 1014.4mb 80f 78f
4:50am 6ft 9s 7s 9 11 mph 1014.9mb 81f 78f
3:50am 6ft 9s  -  7 9 mph 1015.8mb 80f 78f
2:50am 5ft 9s 7s 4 7 mph 1016.2mb 81f 78f
1:50am 5ft 8s 6s 2
mph
1016.4mb 81f 78f
12:50am 5ft 8s 6s 4
mph
1016.1mb 81f 77f
Wed 05/27 11:50pm 5ft 8s 7s 4 7 mph 1015.5mb 81f 77f
10:50pm 5ft 8s 6s 4 7 mph 1014.7mb 81f 77f
9:50pm 5ft 8s 6s 2 4 mph 1014.1mb 81f 77f
8:50pm 5.5ft 9s 6s 2 4 mph 1014mb 81f 77f
7:50pm 5ft 9s 6s 2 7 mph 1014mb 81f 76f
6:50pm 5.5ft 8s 6s 4 7 mph 1014.1mb 81f 76f
5:50pm 5ft 8s 6s 7 9 mph 1014.7mb 81f 75f
4:50pm 5ft 9s 6s 9 11 mph 1015mb 81f 75f
3:50pm 5ft 8s 6s 11 13 mph 1015.7mb 81f 74f
2:50pm 5ft 8s 6s 13 18 mph 1015.7mb 80f 73f
1:50pm 5ft 8s 6s 13 16 mph 1015.7mb 80f 74f
12:50pm 5ft 8s 6s 11 13 mph 1015.1mb 80f 75f
11:50am 5ft 8s 6s 7 9 mph 1014.9mb 80f 73f
10:50am 5ft 8s 5s 11 18 mph 1014.3mb 80f 73f
9:50am 5ft 9s 5s 18 20 mph 1013mb 80f 77f
8:50am 5.5ft 8s 5s 16 20 mph 1012.8mb 80f 73f
7:50am 6ft 5s 5s 20 25 mph 1012.7mb 80f 75f
6:50am 5ft 9s 5s 22 27 mph 1012.9mb 81f 74f
5:50am 5ft 8s 5s 22 27 mph 1013.4mb 81f 75f
4:50am 4.5ft 9s 5s 18 20 mph 1014.1mb 81f 75f
3:50am 4.5ft 8s 6s 16 20 mph 1015.2mb 81f 74f
2:50am 4.5ft 8s 6s 16 18 mph 1015.9mb 81f 74f
1:50am 4.5ft 8s 6s 11 13 mph 1016.4mb 81f 74f
12:50am 4.5ft 8s 6s 13 16 mph 1016mb 81f 73f
Tue 05/26 11:50pm 4.5ft 9s 6s 13 16 mph 1016.1mb 81f 73f
10:50pm 4.5ft 8s 6s 9 11 mph 1016.2mb 81f 73f
9:50pm 4.5ft 9s 6s 13 16 mph 1015.6mb 81f 73f
8:50pm 4ft 9s 6s 9 16 mph 1015.4mb 81f 73f
7:50pm 4.5ft 8s 6s 13 16 mph 1015.2mb 81f 74f
6:50pm 4.5ft 9s 6s 7 9 mph 1015.6mb 81f 74f
5:50pm 4ft 7s 6s 7 9 mph 1015.8mb 81f 75f
4:50pm 4.5ft 9s 6s 11 13 mph 1016.4mb 81f 75f
3:50pm 4.5ft 8s 6s 7 9 mph 1017.1mb 81f 74f
2:50pm 4.5ft 8s 6s 7 11 mph 1017.4mb 81f 77f
1:50pm 4ft 8s 7s 7 13 mph 1017.4mb 81f 76f
12:50pm 4.5ft 9s 7s 4 9 mph 1017.1mb 81f 79f
11:50am 4.5ft 9s 7s 4 7 mph 1017mb 81f 79f
10:50am 4.5ft 8s 7s 7 9 mph 1016.8mb 81f 79f
9:50am 5ft 8s 6s 4 9 mph 1016.5mb 81f 78f
8:50am 4.5ft 8s 6s 4 7 mph 1016.2mb 81f 77f
7:50am 4.5ft 8s 6s 2
mph
1016.2mb 81f 77f
6:50am 4.5ft 8s 6s 16 18 mph 1016mb 81f 76f
5:50am 4.5ft 8s 6s 7 9 mph 1016.3mb 81f 77f
4:50am 4.5ft 8s 6s 9 11 mph 1017.2mb 81f 77f
3:50am 4.5ft 9s 6s 7 9 mph 1018.1mb 81f 78f
2:50am 4.5ft 9s 6s 9 11 mph 1018.8mb 81f 79f
1:50am 5ft 8s 7s 7 9 mph 1019mb 81f 78f
12:50am 5ft 8s 6s 7 9 mph 1018.9mb 81f 77f
Mon 05/25 11:50pm 5ft 9s 6s 4 7 mph 1018.9mb 81f 77f
10:50pm 5ft 8s 6s 9 11 mph 1018.7mb 81f 78f
9:50pm 5ft 8s 6s 9 11 mph 1018.5mb 81f 75f
8:50pm 5ft 8s 6s  -  2 mph 1018.3mb 80f 77f
7:50pm 4.5ft 8s 6s 7 11 mph 1018.2mb 81f 76f
6:50pm 4.5ft 8s 6s 7 11 mph 1018.5mb 82f 77f
5:50pm 4.5ft 8s 6s 4 7 mph 1018.8mb 82f 78f
4:50pm 4.5ft 8s 6s  -  2 mph 1019.3mb 81f 77f
3:50pm 4.5ft 8s 6s 7 9 mph 1020mb 81f 78f
2:50pm 4.5ft 8s 6s 13 18 mph 1020.2mb 81f 77f
1:50pm 4.5ft 8s 6s 4 9 mph 1020.4mb 81f 78f
12:50pm 4.5ft 8s 5s 11 13 mph 1020mb 81f 78f
11:50am 4.5ft 8s 5s 16 18 mph 1019.5mb 81f 76f
10:50am 4.5ft 8s 5s 9 11 mph 1019.3mb 81f 78f
9:50am 4.5ft 8s 5s 11 13 mph 1018.9mb 81f 78f
8:50am 4.5ft 8s 5s 13 18 mph 1018.5mb 81f 77f
7:50am 4.5ft 8s 5s 13 16 mph 1018.4mb 81f 78f